Time;durP1;ratioP1;P1;durP2;ratioP2;P2;SDS_P1;SDS_P2;PMS_P1;PMS_P2;Temp;Humidity;BMP_temperature;BMP_pressure;BME280_temperature;BME280_humidity;BME280_pressure;Samples;Min_cycle;Max_cycle;Signal;HPM_P1;HPM_P2
2023/04/13 00:00:07;;;;;;;8.55;0.68;;;;;;;5.67;100.00;94787.22;1039244;28;20033;-71
2023/04/13 00:00:38;;;;;;;0.30;0.22;;;;;;;5.67;100.00;94782.03;1039062;28;20405;-72
2023/04/13 00:01:09;;;;;;;0.38;0.30;;;;;;;5.63;100.00;94783.53;1034900;28;20273;-71
2023/04/13 00:01:40;;;;;;;0.47;0.38;;;;;;;5.65;100.00;94784.09;1040069;28;20534;-71
2023/04/13 00:02:11;;;;;;;0.22;0.20;;;;;;;5.54;100.00;94766.88;1039818;28;20647;-71
2023/04/13 00:02:41;;;;;;;0.40;0.40;;;;;;;5.67;100.00;94787.22;1042437;28;20032;-72
2023/04/13 00:03:15;;;;;;;0.65;0.20;;;;;;;5.66;100.00;94783.81;1042701;28;20028;-71
2023/04/13 00:03:46;;;;;;;0.20;0.20;;;;;;;5.66;100.00;94788.25;1039229;28;20040;-71
2023/04/13 00:04:16;;;;;;;1.90;0.30;;;;;;;5.67;100.00;94787.22;1047760;28;20262;-72
2023/04/13 00:04:49;;;;;;;1.30;0.47;;;;;;;5.65;100.00;94784.09;1038335;28;20032;-72
2023/04/13 00:05:20;;;;;;;0.75;0.38;;;;;;;5.67;100.00;94784.63;1030822;28;20029;-71
2023/04/13 00:05:52;;;;;;;0.20;0.20;;;;;;;5.65;100.00;94778.88;1026573;28;20277;-71
2023/04/13 00:06:23;;;;;;;1.10;0.47;;;;;;;5.66;100.00;94791.63;1030820;28;20492;-72
2023/04/13 00:06:54;;;;;;;0.20;0.20;;;;;;;5.64;100.00;94787.72;1031128;28;20269;-71
2023/04/13 00:07:27;;;;;;;1.13;0.30;;;;;;;5.67;100.00;94787.22;1031750;28;20661;-70
2023/04/13 00:08:01;;;;;;;1.25;0.35;;;;;;;5.66;100.00;94780.44;1038699;28;20061;-71
2023/04/13 00:08:34;;;;;;;0.65;0.25;;;;;;;5.67;100.00;94782.03;1038836;28;20268;-71
2023/04/13 00:09:05;;;;;;;0.20;0.20;;;;;;;5.66;100.00;94788.25;1043145;28;20618;-71
2023/04/13 00:09:36;;;;;;;0.73;0.40;;;;;;;5.62;100.00;94779.38;1042975;28;20286;-72
2023/04/13 00:10:10;;;;;;;0.40;0.40;;;;;;;5.63;100.00;94778.34;1038765;28;20056;-71
2023/04/13 00:10:40;;;;;;;0.20;0.20;;;;;;;5.64;100.00;94785.13;1034642;28;20029;-71
2023/04/13 00:11:11;;;;;;;0.47;0.30;;;;;;;5.64;100.00;94777.31;1035464;28;20766;-71
2023/04/13 00:11:42;;;;;;;1.75;0.22;;;;;;;5.64;100.00;94782.53;1046660;28;20036;-71
2023/04/13 00:12:14;;;;;;;0.22;0.20;;;;;;;5.61;100.00;94777.81;1038745;28;20271;-70
2023/04/13 00:12:47;;;;;;;0.45;0.40;;;;;;;5.68;100.00;94780.97;1026716;28;20032;-72
2023/04/13 00:13:17;;;;;;;0.95;0.20;;;;;;;5.65;100.00;94784.09;1027395;28;20270;-71
2023/04/13 00:13:48;;;;;;;0.50;0.50;;;;;;;5.67;100.00;94782.03;1032177;28;20281;-71
2023/04/13 00:14:18;;;;;;;0.80;0.38;;;;;;;5.66;100.00;94778.59;1031029;28;20026;-71
2023/04/13 00:14:51;;;;;;;0.30;0.30;;;;;;;5.58;100.00;94775.72;1038146;28;20029;-69
2023/04/13 00:15:21;;;;;;;0.85;0.30;;;;;;;5.63;100.00;94775.72;1042941;28;20505;-71
2023/04/13 00:15:55;;;;;;;0.50;0.32;;;;;;;5.63;100.00;94788.75;1043144;28;20282;-72
2023/04/13 00:16:28;;;;;;;0.25;0.20;;;;;;;5.63;100.00;94786.94;1033811;28;20034;-71
2023/04/13 00:16:59;;;;;;;0.38;0.30;;;;;;;5.64;100.00;94782.53;1030687;28;20547;-71
2023/04/13 00:17:29;;;;;;;0.20;0.20;;;;;;;5.63;100.00;94775.72;1030501;28;20286;-71
2023/04/13 00:18:00;;;;;;;1.55;0.30;;;;;;;5.65;100.00;94778.88;1036376;28;20542;-71
2023/04/13 00:18:31;;;;;;;0.20;0.20;;;;;;;5.63;100.00;94773.13;1042989;28;20099;-71
2023/04/13 00:19:02;;;;;;;0.73;0.32;;;;;;;5.62;100.00;94768.97;1040653;28;20505;-71
2023/04/13 00:19:35;;;;;;;1.10;0.40;;;;;;;5.63;100.00;94775.72;1042678;28;20041;-71
2023/04/13 00:20:10;;;;;;;0.73;0.38;;;;;;;5.63;100.00;94770.53;1042918;28;20279;-72
2023/04/13 00:20:42;;;;;;;1.55;0.30;;;;;;;5.64;100.00;94772.13;1037512;28;20284;-71
2023/04/13 00:21:15;;;;;;;0.20;0.20;;;;;;;5.65;100.00;94782.25;1042975;28;20370;-71
2023/04/13 00:21:46;;;;;;;0.45;0.45;;;;;;;5.66;100.00;94778.59;1037537;28;20371;-72
2023/04/13 00:22:16;;;;;;;1.08;0.40;;;;;;;5.67;100.00;94780.19;1032596;28;20718;-72
2023/04/13 00:22:47;;;;;;;0.50;0.30;;;;;;;5.67;100.00;94776.81;1041962;28;20387;-72
2023/04/13 00:23:18;;;;;;;0.30;0.30;;;;;;;5.66;100.00;94781.22;1038945;28;20040;-72
2023/04/13 00:23:48;;;;;;;0.55;0.55;;;;;;;5.70;100.00;94791.13;1039001;28;20264;-72
2023/04/13 00:24:19;;;;;;;1.20;0.30;;;;;;;5.71;100.00;94790.88;1038745;28;20068;-73
2023/04/13 00:24:54;;;;;;;0.22;0.22;;;;;;;5.70;100.00;94796.31;1037528;28;20947;-72
2023/04/13 00:25:24;;;;;;;0.63;0.30;;;;;;;5.69;100.00;94798.16;1039674;28;20053;-72
2023/04/13 00:25:55;;;;;;;0.40;0.25;;;;;;;5.68;100.00;94788.78;1034436;28;20276;-71
2023/04/13 00:26:25;;;;;;;0.32;0.32;;;;;;;5.65;100.00;94784.09;1033528;28;20068;-72
2023/04/13 00:26:56;;;;;;;0.20;0.20;;;;;;;5.67;100.00;94795.03;1038617;28;20040;-72
2023/04/13 00:27:26;;;;;;;0.20;0.20;;;;;;;5.68;100.00;94794.75;1042877;28;20628;-71
2023/04/13 00:28:00;;;;;;;0.25;0.20;;;;;;;5.69;100.00;94795.53;1038794;28;20029;-72
2023/04/13 00:28:30;;;;;;;0.60;0.50;;;;;;;5.69;100.00;94803.34;1038222;28;20495;-72
2023/04/13 00:29:01;;;;;;;0.40;0.40;;;;;;;5.68;100.00;94799.19;1035293;28;20268;-73
2023/04/13 00:29:31;;;;;;;0.50;0.30;;;;;;;5.66;100.00;94801.25;1043577;28;20037;-71
2023/04/13 00:30:02;;;;;;;0.20;0.20;;;;;;;5.63;100.00;94797.38;1043075;28;20060;-72
2023/04/13 00:30:33;;;;;;;0.20;0.20;;;;;;;5.66;100.00;94801.25;1030709;28;20090;-72
2023/04/13 00:31:03;;;;;;;0.10;0.10;;;;;;;5.65;100.00;94797.09;1030407;28;20476;-72
2023/04/13 00:31:34;;;;;;;0.30;0.30;;;;;;;5.60;100.00;94797.88;1026574;28;20034;-72
2023/04/13 00:32:04;;;;;;;0.30;0.30;;;;;;;5.64;100.00;94806.72;1031249;28;20034;-72
2023/04/13 00:32:36;;;;;;;0.30;0.30;;;;;;;5.60;100.00;94803.06;1042907;28;20047;-72
2023/04/13 00:33:06;;;;;;;1.67;0.25;;;;;;;5.63;100.00;94799.16;1036237;28;20029;-72
2023/04/13 00:33:36;;;;;;;0.30;0.30;;;;;;;5.62;100.00;94805.41;1038653;28;20692;-72
2023/04/13 00:34:07;;;;;;;0.35;0.35;;;;;;;5.63;100.00;94799.16;1030686;28;20072;-72
2023/04/13 00:34:38;;;;;;;0.77;0.65;;;;;;;5.64;100.00;94801.53;1034837;28;20034;-72
2023/04/13 00:35:09;;;;;;;0.30;0.30;;;;;;;5.56;100.00;94781.16;1042661;28;20362;-71
2023/04/13 00:35:40;;;;;;;0.40;0.40;;;;;;;5.61;100.00;94791.63;1030776;28;20041;-71
2023/04/13 00:36:11;;;;;;;0.30;0.30;;;;;;;5.63;100.00;94789.56;1034589;28;20833;-72
2023/04/13 00:36:41;;;;;;;0.45;0.20;;;;;;;5.60;100.00;94787.47;1034343;28;20280;-71
2023/04/13 00:37:13;;;;;;;0.52;0.25;;;;;;;5.60;100.00;94784.84;1039209;28;20415;-72
2023/04/13 00:37:46;;;;;;;0.30;0.20;;;;;;;5.52;100.00;94780.13;1047015;28;20032;-72
2023/04/13 00:38:17;;;;;;;4.38;0.43;;;;;;;5.60;100.00;94792.66;1038142;28;20272;-71
2023/04/13 00:38:47;;;;;;;0.20;0.20;;;;;;;5.61;100.00;94798.66;1034757;28;20269;-70
2023/04/13 00:39:21;;;;;;;0.82;0.20;;;;;;;5.62;100.00;94800.19;1034956;28;20272;-72
2023/04/13 00:39:52;;;;;;;0.35;0.30;;;;;;;5.64;100.00;94803.34;1039358;28;20036;-72
2023/04/13 00:40:23;;;;;;;0.45;0.45;;;;;;;5.62;100.00;94808.78;1042963;28;20271;-71
2023/04/13 00:40:54;;;;;;;1.05;0.20;;;;;;;5.59;100.00;94814.50;1038759;28;20040;-72
2023/04/13 00:41:25;;;;;;;0.98;0.30;;;;;;;5.55;100.00;94810.06;1034856;28;20300;-71
2023/04/13 00:41:58;;;;;;;0.88;0.32;;;;;;;5.51;100.00;94812.38;1038837;28;20272;-72
2023/04/13 00:42:28;;;;;;;0.43;0.30;;;;;;;5.55;100.00;94812.66;1034717;28;20061;-72
2023/04/13 00:43:00;;;;;;;0.20;0.20;;;;;;;5.49;100.00;94803.25;1034097;28;20277;-72
2023/04/13 00:43:31;;;;;;;1.50;0.20;;;;;;;5.53;100.00;94809.53;1033687;28;20033;-72
2023/04/13 00:44:01;;;;;;;0.60;0.28;;;;;;;5.54;100.00;94813.72;1038662;28;20272;-72
2023/04/13 00:44:32;;;;;;;0.20;0.20;;;;;;;5.46;100.00;94806.38;1039049;28;20060;-71
2023/04/13 00:45:02;;;;;;;0.40;0.40;;;;;;;5.49;100.00;94811.84;1044761;28;20090;-71
2023/04/13 00:45:37;;;;;;;1.45;0.30;;;;;;;5.46;100.00;94803.75;1046827;28;20276;-70
2023/04/13 00:46:08;;;;;;;0.70;0.28;;;;;;;5.43;100.00;94795.44;1034640;28;20034;-71
2023/04/13 00:46:41;;;;;;;0.20;0.20;;;;;;;5.42;100.00;94791.25;1030512;28;20269;-72
2023/04/13 00:47:16;;;;;;;1.08;0.50;;;;;;;5.47;100.00;94805.34;1034746;28;20033;-71
2023/04/13 00:47:47;;;;;;;1.08;0.30;;;;;;;5.45;100.00;94803.00;1034717;28;20257;-71
2023/04/13 00:48:18;;;;;;;0.30;0.30;;;;;;;5.42;100.00;94796.47;1036607;28;20261;-72
2023/04/13 00:48:48;;;;;;;0.45;0.30;;;;;;;5.44;100.00;94801.44;1034330;28;20268;-71
2023/04/13 00:49:20;;;;;;;0.38;0.30;;;;;;;5.35;100.00;94790.72;1030615;28;20476;-72
2023/04/13 00:49:52;;;;;;;0.20;0.20;;;;;;;5.38;100.00;94800.63;1034970;28;20462;-71
2023/04/13 00:50:22;;;;;;;0.50;0.20;;;;;;;5.40;100.00;94810.78;1038576;28;20290;-71
2023/04/13 00:50:53;;;;;;;0.40;0.40;;;;;;;5.39;100.00;94812.56;1038350;28;20306;-71
2023/04/13 00:51:23;;;;;;;0.60;0.30;;;;;;;5.37;100.00;94809.47;1038691;28;20473;-71
2023/04/13 00:51:54;;;;;;;0.30;0.30;;;;;;;5.36;100.00;94820.09;1034633;28;20022;-71
2023/04/13 00:52:24;;;;;;;0.60;0.45;;;;;;;5.36;100.00;94826.09;1030929;28;20485;-72
2023/04/13 00:52:55;;;;;;;0.80;0.40;;;;;;;5.35;100.00;94821.94;1026492;28;20432;-72
2023/04/13 00:53:26;;;;;;;0.20;0.20;;;;;;;5.33;100.00;94818.81;1027663;28;20093;-72
2023/04/13 00:53:57;;;;;;;0.93;0.30;;;;;;;5.37;100.00;94821.69;1034863;28;20268;-71
2023/04/13 00:54:28;;;;;;;0.30;0.30;;;;;;;5.36;100.00;94822.69;1038578;28;20221;-71
2023/04/13 00:55:01;;;;;;;0.77;0.30;;;;;;;5.28;100.00;94813.56;1038151;28;20442;-71
2023/04/13 00:55:32;;;;;;;0.30;0.30;;;;;;;5.34;100.00;94817.00;1042061;28;20139;-70
2023/04/13 00:56:04;;;;;;;0.28;0.20;;;;;;;5.28;100.00;94816.16;1038456;28;20777;-71
2023/04/13 00:56:36;;;;;;;1.27;0.28;;;;;;;5.31;100.00;94820.09;1042932;28;20040;-71
2023/04/13 00:57:06;;;;;;;0.20;0.20;;;;;;;5.32;100.00;94819.81;1038776;28;20276;-72
2023/04/13 00:57:39;;;;;;;0.20;0.20;;;;;;;5.32;100.00;94819.03;1038589;28;20292;-72
2023/04/13 00:58:09;;;;;;;1.10;0.45;;;;;;;5.28;100.00;94810.97;1033671;28;20065;-71
2023/04/13 00:58:41;;;;;;;0.47;0.30;;;;;;;5.29;100.00;94815.13;1032628;28;20269;-72
2023/04/13 00:59:11;;;;;;;0.30;0.30;;;;;;;5.29;100.00;94812.53;1034906;28;20030;-71
2023/04/13 00:59:42;;;;;;;0.30;0.30;;;;;;;5.28;100.00;94818.00;1038855;28;20641;-71
2023/04/13 01:00:13;;;;;;;0.68;0.40;;;;;;;5.23;100.00;94817.94;1034421;28;20034;-71
2023/04/13 01:00:44;;;;;;;0.20;0.20;;;;;;;5.27;100.00;94817.22;1038803;28;20495;-71
2023/04/13 01:01:14;;;;;;;0.20;0.20;;;;;;;5.24;100.00;94812.50;1038894;28;20272;-72
2023/04/13 01:01:45;;;;;;;0.38;0.38;;;;;;;5.27;100.00;94824.22;1038925;28;20044;-71
2023/04/13 01:02:15;;;;;;;0.22;0.20;;;;;;;5.27;100.00;94825.00;1038379;28;20071;-71
2023/04/13 01:02:46;;;;;;;0.47;0.20;;;;;;;5.25;100.00;94826.28;1034575;28;20076;-71
2023/04/13 01:03:16;;;;;;;0.40;0.40;;;;;;;5.25;100.00;94829.66;1034847;28;20521;-71
2023/04/13 01:03:48;;;;;;;0.20;0.20;;;;;;;5.24;100.00;94830.72;1042730;28;20043;-72
2023/04/13 01:04:18;;;;;;;0.52;0.20;;;;;;;5.22;100.00;94830.16;1042242;28;20073;-71
2023/04/13 01:04:49;;;;;;;0.20;0.20;;;;;;;5.16;100.00;94824.16;1044265;28;20271;-70
2023/04/13 01:05:20;;;;;;;0.17;0.17;;;;;;;5.21;100.00;94831.22;1039009;28;20068;-71
2023/04/13 01:06:08;;;;;;;0.40;0.30;;;;;;;5.23;100.00;94833.53;1038856;28;20511;-71
2023/04/13 01:06:43;;;;;;;0.40;0.40;;;;;;;5.15;100.00;94833.00;1038439;28;20119;-71
2023/04/13 01:07:14;;;;;;;0.30;0.28;;;;;;;5.22;100.00;94840.56;1027662;28;20365;-71
2023/04/13 01:07:55;;;;;;;1.25;0.35;;;;;;;5.20;100.00;94840.06;1033640;28;20260;-72
2023/04/13 01:08:38;;;;;;;0.38;0.38;;;;;;;5.23;100.00;94838.75;1032473;28;20081;-71
2023/04/13 01:09:10;;;;;;;0.45;0.40;;;;;;;5.19;100.00;94833.28;1037451;28;20279;-71
2023/04/13 01:10:11;;;;;;;0.30;0.30;;;;;;;5.22;100.00;94837.19;1038658;28;20638;-71
2023/04/13 01:10:50;;;;;;;0.30;0.30;;;;;;;5.14;100.00;94828.84;1026790;28;20341;-71
2023/04/13 01:11:38;;;;;;;0.30;0.30;;;;;;;5.19;100.00;94834.03;1026105;28;20121;-71
2023/04/13 01:12:13;;;;;;;0.40;0.30;;;;;;;5.13;100.00;94829.06;1030464;28;20275;-72
2023/04/13 01:12:50;;;;;;;0.35;0.35;;;;;;;5.18;100.00;94831.72;1028447;28;20361;-72
2023/04/13 01:13:25;;;;;;;0.57;0.20;;;;;;;5.14;100.00;94828.06;1030466;28;20269;-71
2023/04/13 01:14:01;;;;;;;0.77;0.25;;;;;;;5.12;100.00;94820.47;1032289;28;20782;-72
2023/04/13 01:14:36;;;;;;;0.40;0.20;;;;;;;5.11;100.00;94818.94;1029789;28;20307;-71
2023/04/13 01:15:10;;;;;;;1.45;0.20;;;;;;;5.18;100.00;94816.09;1022222;29;20770;-71
2023/04/13 01:15:45;;;;;;;0.30;0.30;;;;;;;5.16;100.00;94816.38;1030334;28;20739;-71
2023/04/13 01:16:18;;;;;;;1.77;0.20;;;;;;;5.13;100.00;94814.28;1032241;28;20269;-71
2023/04/13 01:16:55;;;;;;;1.85;0.50;;;;;;;5.16;100.00;94810.38;1034293;28;20673;-71
2023/04/13 01:17:27;;;;;;;0.38;0.20;;;;;;;5.13;100.00;94810.88;1030469;28;20269;-71
2023/04/13 01:18:03;;;;;;;0.88;0.30;;;;;;;5.16;100.00;94818.16;1034409;28;20725;-71
2023/04/13 01:18:36;;;;;;;0.30;0.30;;;;;;;5.13;100.00;94805.66;1034690;28;20304;-71
2023/04/13 01:19:19;;;;;;;0.20;0.20;;;;;;;5.11;100.00;94805.16;1030233;28;20273;-71
2023/04/13 01:20:10;;;;;;;0.10;0.10;;;;;;;5.14;100.00;94815.81;1026535;28;20270;-72
2023/04/13 01:20:42;;;;;;;1.50;0.20;;;;;;;5.13;100.00;94811.66;1036263;28;21080;-71
2023/04/13 01:21:14;;;;;;;0.68;0.40;;;;;;;5.13;100.00;94813.47;1038600;28;20367;-72
2023/04/13 01:21:44;;;;;;;0.35;0.35;;;;;;;5.14;100.00;94807.25;1033621;28;20288;-71
2023/04/13 01:22:15;;;;;;;0.30;0.25;;;;;;;5.16;100.00;94807.75;1030510;28;20316;-71
2023/04/13 01:22:56;;;;;;;0.55;0.30;;;;;;;5.10;100.00;94801.78;1034723;28;20021;-71
2023/04/13 01:23:30;;;;;;;0.38;0.28;;;;;;;5.11;100.00;94805.16;1034632;28;20034;-71
2023/04/13 01:24:29;;;;;;;0.63;0.20;;;;;;;5.15;100.00;94804.38;1028529;28;20819;-71
2023/04/13 01:25:37;;;;;;;0.28;0.28;;;;;;;5.13;100.00;94808.25;1029984;28;20253;-71
2023/04/13 01:26:08;;;;;;;0.20;0.20;;;;;;;5.12;100.00;94796.31;1038406;28;20244;-71
2023/04/13 01:27:16;;;;;;;1.77;0.40;;;;;;;5.12;100.00;94799.69;1031694;28;20429;-71
2023/04/13 01:27:50;;;;;;;0.30;0.30;;;;;;;5.06;100.00;94789.50;1028953;28;20278;-69
2023/04/13 01:28:21;;;;;;;0.30;0.30;;;;;;;5.08;100.00;94797.84;1029488;28;20269;-72
2023/04/13 01:28:51;;;;;;;0.20;0.20;;;;;;;5.12;100.00;94801.50;1026459;28;20852;-71
2023/04/13 01:29:24;;;;;;;0.20;0.20;;;;;;;5.07;100.00;94794.47;1030581;28;20033;-72
2023/04/13 01:29:57;;;;;;;2.15;0.30;;;;;;;5.12;100.00;94801.50;1034312;28;20034;-72
2023/04/13 01:30:27;;;;;;;0.60;0.30;;;;;;;5.09;100.00;94792.38;1034556;28;20301;-71
2023/04/13 01:31:00;;;;;;;0.20;0.20;;;;;;;5.10;100.00;94798.38;1022497;29;20263;-72
2023/04/13 01:31:31;;;;;;;0.40;0.30;;;;;;;5.09;100.00;94796.81;1027006;28;21274;-72
2023/04/13 01:32:02;;;;;;;0.40;0.30;;;;;;;5.10;100.00;94799.16;1026674;28;20347;-71
2023/04/13 01:32:32;;;;;;;2.00;0.30;;;;;;;5.04;100.00;94794.19;1026509;28;20761;-71
2023/04/13 01:33:03;;;;;;;0.65;0.38;;;;;;;5.11;100.00;94800.72;1022864;28;20417;-72
2023/04/13 01:33:34;;;;;;;0.28;0.28;;;;;;;5.11;100.00;94805.16;1030653;28;20034;-71
2023/04/13 01:34:04;;;;;;;0.57;0.20;;;;;;;5.06;100.00;94797.31;1030503;28;20385;-71
2023/04/13 01:34:35;;;;;;;1.15;0.30;;;;;;;5.08;100.00;94803.81;1029886;28;20520;-71
2023/04/13 01:35:09;;;;;;;2.20;0.47;;;;;;;5.11;100.00;94810.34;1026366;28;20027;-71
2023/04/13 01:35:39;;;;;;;0.20;0.20;;;;;;;5.03;100.00;94805.59;1026480;28;20026;-71
2023/04/13 01:36:10;;;;;;;0.43;0.35;;;;;;;5.04;100.00;94809.78;1026497;28;20250;-71
2023/04/13 01:36:41;;;;;;;0.28;0.28;;;;;;;5.02;100.00;94810.03;1030348;28;20014;-71
2023/04/13 01:37:12;;;;;;;0.10;0.10;;;;;;;5.04;100.00;94817.59;1034461;28;20652;-71
2023/04/13 01:37:43;;;;;;;1.08;0.30;;;;;;;5.04;100.00;94825.38;1030452;28;20257;-71
2023/04/13 01:38:13;;;;;;;0.22;0.22;;;;;;;5.04;100.00;94814.97;1038352;28;20021;-72
2023/04/13 01:38:45;;;;;;;0.30;0.20;;;;;;;5.03;100.00;94818.59;1034481;28;20014;-71
2023/04/13 01:39:19;;;;;;;1.98;0.50;;;;;;;4.97;100.00;94810.78;1035035;28;20028;-71
2023/04/13 01:39:49;;;;;;;3.25;0.30;;;;;;;4.96;100.00;94806.63;1030129;28;20266;-72
2023/04/13 01:40:20;;;;;;;0.45;0.30;;;;;;;5.02;100.00;94822.25;1036246;28;20269;-71
2023/04/13 01:40:51;;;;;;;4.68;0.25;;;;;;;4.92;100.00;94810.72;1026281;28;20502;-72
2023/04/13 01:41:22;;;;;;;0.20;0.20;;;;;;;4.99;100.00;94820.13;1031231;28;20050;-72
2023/04/13 01:41:52;;;;;;;0.45;0.40;;;;;;;4.99;100.00;94817.53;1030255;28;20015;-71
2023/04/13 01:42:23;;;;;;;0.50;0.38;;;;;;;4.97;100.00;94813.38;1034492;28;20570;-72
2023/04/13 01:42:53;;;;;;;0.10;0.10;;;;;;;4.93;100.00;94814.91;1034485;28;20398;-71
2023/04/13 01:43:24;;;;;;;0.20;0.20;;;;;;;4.94;100.00;94810.50;1026297;28;20026;-72
2023/04/13 01:43:55;;;;;;;0.17;0.15;;;;;;;4.91;100.00;94806.56;1022589;28;20489;-72
2023/04/13 01:44:27;;;;;;;0.25;0.20;;;;;;;4.96;100.00;94813.63;1034569;28;20015;-72
2023/04/13 01:44:57;;;;;;;0.65;0.30;;;;;;;4.95;100.00;94812.84;1034035;28;20322;-72
2023/04/13 01:45:31;;;;;;;0.28;0.20;;;;;;;4.95;100.00;94818.03;1026323;28;20262;-71
2023/04/13 01:46:05;;;;;;;0.47;0.20;;;;;;;4.94;100.00;94811.28;1026349;28;20484;-72
2023/04/13 01:46:36;;;;;;;0.22;0.20;;;;;;;4.94;100.00;94815.69;1033493;28;20269;-72
2023/04/13 01:47:14;;;;;;;0.20;0.20;;;;;;;4.86;100.00;94798.75;1036627;28;20261;-72
2023/04/13 01:47:50;;;;;;;0.40;0.30;;;;;;;4.92;100.00;94810.72;1030356;28;20021;-72
2023/04/13 01:48:34;;;;;;;0.20;0.20;;;;;;;4.91;100.00;94811.00;1026331;28;20293;-72
2023/04/13 01:49:04;;;;;;;0.47;0.30;;;;;;;4.89;100.00;94811.22;1034171;28;20273;-71
2023/04/13 01:49:34;;;;;;;0.35;0.30;;;;;;;4.87;100.00;94810.72;1026410;28;20266;-71
2023/04/13 01:50:14;;;;;;;0.30;0.20;;;;;;;4.91;100.00;94816.19;1031949;28;20011;-71
2023/04/13 01:50:47;;;;;;;0.50;0.30;;;;;;;4.88;100.00;94809.66;1029223;28;20483;-71
2023/04/13 01:51:18;;;;;;;0.22;0.22;;;;;;;4.86;100.00;94806.56;1030318;28;20022;-72
2023/04/13 01:51:50;;;;;;;0.35;0.35;;;;;;;4.84;100.00;94811.22;1028137;28;20266;-71
2023/04/13 01:52:21;;;;;;;0.73;0.22;;;;;;;4.85;100.00;94802.38;1026347;28;20773;-72
2023/04/13 01:52:53;;;;;;;2.05;0.30;;;;;;;4.89;100.00;94810.44;1026486;28;20290;-71
2023/04/13 01:53:27;;;;;;;0.43;0.20;;;;;;;4.87;100.00;94821.09;1030226;28;20261;-71
2023/04/13 01:54:11;;;;;;;1.65;0.20;;;;;;;4.85;100.00;94812.75;1034441;28;20253;-72
2023/04/13 01:54:44;;;;;;;0.17;0.17;;;;;;;4.87;100.00;94815.91;1040572;28;20811;-71
2023/04/13 01:55:15;;;;;;;0.20;0.20;;;;;;;4.86;100.00;94816.94;1030029;28;20979;-71
2023/04/13 01:55:45;;;;;;;0.52;0.35;;;;;;;4.86;100.00;94818.75;1026326;28;20297;-71
2023/04/13 01:56:18;;;;;;;0.20;0.20;;;;;;;4.81;100.00;94814.31;1026147;28;20564;-72
2023/04/13 01:56:49;;;;;;;0.15;0.15;;;;;;;4.82;100.00;94810.66;1038373;28;20132;-71
2023/04/13 01:57:19;;;;;;;1.40;0.20;;;;;;;4.73;100.00;94799.97;1034221;28;20987;-72
2023/04/13 01:57:50;;;;;;;0.73;0.20;;;;;;;4.83;100.00;94814.84;1030332;28;20277;-71
2023/04/13 01:58:22;;;;;;;0.35;0.30;;;;;;;4.85;100.00;94817.19;1030269;28;20619;-71
2023/04/13 01:58:58;;;;;;;0.38;0.38;;;;;;;4.80;100.00;94817.16;1030165;28;20651;-72
2023/04/13 01:59:29;;;;;;;0.28;0.15;;;;;;;4.83;100.00;94817.44;1034447;28;20711;-72
2023/04/13 02:00:10;;;;;;;1.23;0.40;;;;;;;4.84;100.00;94816.41;1026232;28;20285;-71
2023/04/13 02:00:41;;;;;;;1.17;0.30;;;;;;;4.81;100.00;94816.91;1032843;28;20033;-71
2023/04/13 02:01:11;;;;;;;0.17;0.10;;;;;;;4.81;100.00;94816.91;1035789;28;20670;-72
2023/04/13 02:01:42;;;;;;;0.30;0.30;;;;;;;4.82;100.00;94813.25;1038515;28;20032;-72
2023/04/13 02:02:15;;;;;;;0.10;0.10;;;;;;;4.80;100.00;94814.56;1033024;28;20064;-72
2023/04/13 02:02:45;;;;;;;0.20;0.20;;;;;;;4.80;100.00;94817.16;1027663;28;20595;-72
2023/04/13 02:03:16;;;;;;;0.30;0.25;;;;;;;4.75;100.00;94807.50;1038426;28;20359;-71
2023/04/13 02:03:47;;;;;;;0.35;0.35;;;;;;;4.75;100.00;94809.31;1039018;28;20506;-71
2023/04/13 02:04:18;;;;;;;0.20;0.20;;;;;;;4.78;100.00;94819.22;1039009;28;20061;-72
2023/04/13 02:04:49;;;;;;;0.30;0.10;;;;;;;4.80;100.00;94823.13;1037652;28;20079;-71
2023/04/13 02:05:19;;;;;;;0.30;0.30;;;;;;;4.78;100.00;94827.78;1037029;28;20280;-71
2023/04/13 02:05:50;;;;;;;0.95;0.85;;;;;;;4.77;100.00;94822.84;1034465;28;20044;-72
2023/04/13 02:06:20;;;;;;;1.25;0.20;;;;;;;4.77;100.00;94822.84;1042547;28;20032;-72
2023/04/13 02:06:51;;;;;;;1.45;0.22;;;;;;;4.74;100.00;94826.72;1041839;28;20036;-70
2023/04/13 02:07:22;;;;;;;0.30;0.10;;;;;;;4.74;100.00;94816.31;1045938;28;20055;-71
2023/04/13 02:07:53;;;;;;;1.05;0.32;;;;;;;4.76;100.00;94835.03;1038381;28;20044;-72
2023/04/13 02:08:24;;;;;;;0.40;0.30;;;;;;;4.70;100.00;94820.47;1038468;28;20283;-72
2023/04/13 02:08:54;;;;;;;0.10;0.10;;;;;;;4.74;100.00;94829.31;1042639;28;20264;-72
2023/04/13 02:09:27;;;;;;;1.92;0.30;;;;;;;4.75;100.00;94828.28;1046601;28;20024;-72
2023/04/13 02:09:57;;;;;;;1.35;0.30;;;;;;;4.69;100.00;94822.28;1042406;28;20116;-71
2023/04/13 02:10:28;;;;;;;0.40;0.28;;;;;;;4.76;100.00;94837.63;1038070;28;20946;-72
2023/04/13 02:10:58;;;;;;;0.25;0.22;;;;;;;4.76;100.00;94840.22;1026082;28;20031;-72
2023/04/13 02:11:28;;;;;;;0.45;0.10;;;;;;;4.75;100.00;94830.88;1026498;28;20033;-71
2023/04/13 02:11:59;;;;;;;0.25;0.25;;;;;;;4.73;100.00;94835.56;1022572;28;20477;-71
2023/04/13 02:12:29;;;;;;;0.20;0.20;;;;;;;4.71;100.00;94838.38;1034382;28;20105;-71
2023/04/13 02:13:00;;;;;;;0.40;0.30;;;;;;;4.71;100.00;94845.41;1042684;28;20036;-71
2023/04/13 02:13:30;;;;;;;0.20;0.20;;;;;;;4.70;100.00;94836.81;1042789;28;20033;-72
2023/04/13 02:14:01;;;;;;;2.38;0.20;;;;;;;4.70;100.00;94841.25;1042295;28;20028;-71
2023/04/13 02:14:34;;;;;;;0.20;0.20;;;;;;;4.72;100.00;94841.78;1042196;28;20604;-71
2023/04/13 02:15:05;;;;;;;1.10;0.20;;;;;;;4.64;100.00;94834.44;1041927;28;20302;-71
2023/04/13 02:15:36;;;;;;;0.20;0.17;;;;;;;4.66;100.00;94834.94;1037452;28;20048;-71
2023/04/13 02:16:07;;;;;;;0.28;0.22;;;;;;;4.71;100.00;94832.41;1038406;28;20260;-72
2023/04/13 02:16:38;;;;;;;0.20;0.20;;;;;;;4.67;100.00;94839.91;1034406;28;20132;-71
2023/04/13 02:17:09;;;;;;;1.30;0.10;;;;;;;4.67;100.00;94839.13;1026124;28;20390;-71
2023/04/13 02:17:40;;;;;;;0.38;0.25;;;;;;;4.67;100.00;94839.13;1026677;28;20026;-72
2023/04/13 02:18:12;;;;;;;0.10;0.10;;;;;;;4.51;100.00;94816.66;1034453;28;20768;-71
2023/04/13 02:18:42;;;;;;;0.32;0.20;;;;;;;4.61;100.00;94829.72;1038824;28;20342;-71
2023/04/13 02:19:13;;;;;;;0.10;0.10;;;;;;;4.66;100.00;94838.34;1037409;28;21029;-71
2023/04/13 02:19:45;;;;;;;0.38;0.20;;;;;;;4.65;100.00;94836.00;1038490;28;20040;-71
2023/04/13 02:20:16;;;;;;;0.30;0.20;;;;;;;4.64;100.00;94831.84;1038082;28;20620;-71
2023/04/13 02:20:47;;;;;;;0.93;0.10;;;;;;;4.63;100.00;94835.47;1028911;28;20751;-71
2023/04/13 02:21:17;;;;;;;0.20;0.20;;;;;;;4.63;100.00;94835.47;1033944;28;20033;-71
2023/04/13 02:21:47;;;;;;;0.47;0.25;;;;;;;4.62;100.00;94839.09;1034330;28;20022;-71
2023/04/13 02:22:18;;;;;;;0.77;0.20;;;;;;;4.62;100.00;94839.09;1034519;28;20029;-70
2023/04/13 02:22:48;;;;;;;1.02;0.15;;;;;;;4.61;100.00;94830.50;1035257;28;20824;-71
2023/04/13 02:23:19;;;;;;;0.20;0.20;;;;;;;4.62;100.00;94836.50;1033863;28;20029;-70
2023/04/13 02:23:51;;;;;;;0.10;0.10;;;;;;;4.59;100.00;94834.38;1022117;29;20027;-71
2023/04/13 02:24:21;;;;;;;0.20;0.20;;;;;;;4.61;100.00;94832.31;1026985;28;20152;-71
2023/04/13 02:24:53;;;;;;;0.30;0.20;;;;;;;4.59;100.00;94832.56;1030312;28;20291;-71
2023/04/13 02:25:26;;;;;;;1.85;0.30;;;;;;;4.59;100.00;94834.38;1034174;28;20022;-71
2023/04/13 02:25:57;;;;;;;0.30;0.30;;;;;;;4.58;100.00;94835.41;1035940;28;20273;-71
2023/04/13 02:26:27;;;;;;;0.80;0.30;;;;;;;4.57;100.00;94826.06;1034505;28;20608;-71
2023/04/13 02:26:58;;;;;;;1.95;0.20;;;;;;;4.58;100.00;94833.59;1035172;28;20022;-71
2023/04/13 02:27:29;;;;;;;0.45;0.10;;;;;;;4.58;100.00;94832.81;1032150;28;20018;-71
2023/04/13 02:28:00;;;;;;;0.55;0.20;;;;;;;4.57;100.00;94831.25;1037387;28;20017;-71
2023/04/13 02:28:30;;;;;;;3.88;0.28;;;;;;;4.57;100.00;94839.06;1037498;28;20766;-71
2023/04/13 02:29:01;;;;;;;0.20;0.20;;;;;;;4.57;100.00;94834.63;1039396;28;20080;-71
2023/04/13 02:29:31;;;;;;;0.20;0.13;;;;;;;4.53;100.00;94824.97;1043167;28;20020;-71
2023/04/13 02:30:02;;;;;;;0.30;0.28;;;;;;;4.57;100.00;94829.44;1035065;28;20025;-71
2023/04/13 02:30:32;;;;;;;1.48;0.35;;;;;;;4.59;100.00;94836.97;1031258;28;20058;-70
2023/04/13 02:31:04;;;;;;;0.75;0.30;;;;;;;4.58;100.00;94832.81;1030958;28;20027;-72
2023/04/13 02:31:35;;;;;;;1.85;0.30;;;;;;;4.52;100.00;94824.19;1034992;28;20021;-71
2023/04/13 02:32:05;;;;;;;0.35;0.17;;;;;;;4.58;100.00;94832.81;1039242;28;20318;-71
2023/04/13 02:32:38;;;;;;;0.20;0.20;;;;;;;4.58;100.00;94832.81;1035078;28;20677;-70